Time;durP1;ratioP1;P1;durP2;ratioP2;P2;SDS_P1;SDS_P2;PMS_P1;PMS_P2;Temp;Humidity;BMP_temperature;BMP_pressure;BME280_temperature;BME280_humidity;BME280_pressure;Samples;Min_cycle;Max_cycle;Signal;HPM_P1;HPM_P2
2022/10/13 00:00:48;;;;;;;0.30;0.10;;;;;;;;;;4161521;28;20053;-39
2022/10/13 00:02:49;;;;;;;0.52;0.22;;;;;;;;;;4161045;28;20195;-38
2022/10/13 00:04:51;;;;;;;0.22;0.10;;;;;;;;;;4162133;28;20486;-39
2022/10/13 00:06:52;;;;;;;0.38;0.10;;;;;;;;;;4162487;28;20053;-38
2022/10/13 00:09:00;;;;;;;0.80;0.10;;;;;;;;;;4162057;28;20053;-39
2022/10/13 00:11:07;;;;;;;0.40;0.20;;;;;;;;;;4165589;28;20500;-39
2022/10/13 00:13:11;;;;;;;0.32;0.20;;;;;;;;;;4164783;28;20152;-38
2022/10/13 00:15:12;;;;;;;0.25;0.10;;;;;;;;;;4156037;28;20060;-38
2022/10/13 00:17:13;;;;;;;0.40;0.20;;;;;;;;;;4165940;28;20508;-39
2022/10/13 00:19:14;;;;;;;0.20;0.10;;;;;;;;;;4165172;28;20053;-39
2022/10/13 00:21:22;;;;;;;0.28;0.20;;;;;;;;;;4165766;28;20445;-39
2022/10/13 00:23:24;;;;;;;0.30;0.10;;;;;;;;;;4165552;28;20053;-39
2022/10/13 00:25:26;;;;;;;0.32;0.15;;;;;;;;;;4164274;28;20061;-39
2022/10/13 00:27:27;;;;;;;0.30;0.20;;;;;;;;;;4158909;28;20120;-38
2022/10/13 00:29:28;;;;;;;0.32;0.25;;;;;;;;;;4164491;28;20069;-39
2022/10/13 00:31:31;;;;;;;0.10;0.10;;;;;;;;;;4165454;28;20076;-38
2022/10/13 00:33:32;;;;;;;0.10;0.10;;;;;;;;;;4165679;28;20566;-39
2022/10/13 00:35:39;;;;;;;0.32;0.10;;;;;;;;;;4165208;28;20050;-39
2022/10/13 00:37:40;;;;;;;0.15;0.10;;;;;;;;;;4165018;28;20061;-39
2022/10/13 00:39:42;;;;;;;0.55;0.20;;;;;;;;;;4165229;28;20115;-39
2022/10/13 00:41:44;;;;;;;0.00;0.00;;;;;;;;;;4165404;28;20057;-38
2022/10/13 00:43:49;;;;;;;0.10;0.10;;;;;;;;;;4165282;28;20053;-38
2022/10/13 00:45:51;;;;;;;0.65;0.20;;;;;;;;;;4165708;28;20076;-38
2022/10/13 00:47:58;;;;;;;0.55;0.20;;;;;;;;;;4165233;28;20104;-38
2022/10/13 00:50:00;;;;;;;0.43;0.10;;;;;;;;;;4159073;28;20049;-39
2022/10/13 00:52:01;;;;;;;0.10;0.08;;;;;;;;;;4163714;28;20057;-40
2022/10/13 00:54:03;;;;;;;0.10;0.08;;;;;;;;;;4163659;28;20101;-38
2022/10/13 00:56:07;;;;;;;0.10;0.10;;;;;;;;;;4165242;28;20045;-39
2022/10/13 00:58:10;;;;;;;0.25;0.20;;;;;;;;;;4163871;28;20459;-38
2022/10/13 01:00:12;;;;;;;0.03;0.03;;;;;;;;;;4164837;28;20053;-40
2022/10/13 01:02:13;;;;;;;0.10;0.10;;;;;;;;;;4163815;28;20464;-39
2022/10/13 01:04:16;;;;;;;0.10;0.10;;;;;;;;;;4163278;28;20057;-40
2022/10/13 01:06:17;;;;;;;0.10;0.10;;;;;;;;;;4164869;28;20100;-39
2022/10/13 01:08:20;;;;;;;0.60;0.15;;;;;;;;;;4164480;28;20444;-38
2022/10/13 01:11:02;;;;;;;0.40;0.13;;;;;;;;;;4164616;28;20475;-39
2022/10/13 01:13:13;;;;;;;0.30;0.10;;;;;;;;;;4148964;28;20358;-39
2022/10/13 01:15:27;;;;;;;0.47;0.20;;;;;;;;;;4164453;28;20458;-40
2022/10/13 01:17:48;;;;;;;0.10;0.10;;;;;;;;;;4165197;28;20073;-39
2022/10/13 01:20:31;;;;;;;0.10;0.10;;;;;;;;;;4164345;28;20057;-39
2022/10/13 01:22:46;;;;;;;1.27;0.10;;;;;;;;;;4163179;28;20133;-40
2022/10/13 01:25:03;;;;;;;0.32;0.20;;;;;;;;;;4146920;28;20057;-40
2022/10/13 01:27:11;;;;;;;0.15;0.10;;;;;;;;;;4158450;28;20107;-39
2022/10/13 01:29:29;;;;;;;0.10;0.10;;;;;;;;;;4164895;28;20053;-40
2022/10/13 01:32:02;;;;;;;0.10;0.10;;;;;;;;;;4163212;28;20053;-38
2022/10/13 01:34:17;;;;;;;0.20;0.10;;;;;;;;;;4164003;28;20489;-39
2022/10/13 01:36:32;;;;;;;0.17;0.10;;;;;;;;;;4163244;28;20091;-38
2022/10/13 01:38:54;;;;;;;1.25;0.05;;;;;;;;;;4151486;28;20053;-39
2022/10/13 01:41:16;;;;;;;0.10;0.10;;;;;;;;;;4158105;28;20053;-38
2022/10/13 01:43:35;;;;;;;0.10;0.10;;;;;;;;;;4146895;28;20518;-39
2022/10/13 01:45:46;;;;;;;0.20;0.10;;;;;;;;;;4157065;28;20416;-39
2022/10/13 01:47:47;;;;;;;0.20;0.13;;;;;;;;;;4163554;28;20447;-38
2022/10/13 01:49:49;;;;;;;0.05;0.00;;;;;;;;;;4150585;28;20098;-39
2022/10/13 01:51:51;;;;;;;0.03;0.03;;;;;;;;;;4162789;28;20050;-39
2022/10/13 01:53:52;;;;;;;0.32;0.00;;;;;;;;;;4155940;28;20058;-38
2022/10/13 01:55:58;;;;;;;0.63;0.22;;;;;;;;;;4162998;28;20096;-38
2022/10/13 01:57:59;;;;;;;0.17;0.17;;;;;;;;;;4164182;28;20103;-39
2022/10/13 02:00:10;;;;;;;0.45;0.17;;;;;;;;;;4162879;28;20506;-39
2022/10/13 02:02:18;;;;;;;0.20;0.15;;;;;;;;;;4163213;28;20056;-38
2022/10/13 02:04:36;;;;;;;0.22;0.17;;;;;;;;;;4129749;28;20046;-39
2022/10/13 02:06:45;;;;;;;0.75;0.10;;;;;;;;;;4146000;28;20053;-39
2022/10/13 02:09:02;;;;;;;0.10;0.10;;;;;;;;;;4158015;28;20493;-38
2022/10/13 02:11:13;;;;;;;0.25;0.20;;;;;;;;;;4162421;28;20061;-39
2022/10/13 02:13:16;;;;;;;0.15;0.10;;;;;;;;;;4162749;28;20053;-39
2022/10/13 02:15:21;;;;;;;0.10;0.00;;;;;;;;;;4146342;28;20585;-38
2022/10/13 02:17:26;;;;;;;0.20;0.10;;;;;;;;;;4163551;28;20448;-38
2022/10/13 02:19:27;;;;;;;1.08;0.20;;;;;;;;;;4162484;28;20080;-40
2022/10/13 02:21:29;;;;;;;0.10;0.10;;;;;;;;;;4163535;28;20060;-40
2022/10/13 02:23:36;;;;;;;0.08;0.08;;;;;;;;;;4164040;28;20080;-38
2022/10/13 02:25:38;;;;;;;0.10;0.10;;;;;;;;;;4162329;28;20500;-39
2022/10/13 02:27:40;;;;;;;0.22;0.13;;;;;;;;;;4162033;28;20440;-39
2022/10/13 02:29:51;;;;;;;0.20;0.13;;;;;;;;;;4162200;28;20049;-39
2022/10/13 02:31:53;;;;;;;0.10;0.10;;;;;;;;;;4158287;28;20061;-40
2022/10/13 02:33:55;;;;;;;0.20;0.20;;;;;;;;;;4161485;28;20053;-40
2022/10/13 02:35:56;;;;;;;0.20;0.10;;;;;;;;;;4162040;28;20121;-38
2022/10/13 02:37:57;;;;;;;0.20;0.10;;;;;;;;;;4163247;28;20390;-39
2022/10/13 02:39:59;;;;;;;0.20;0.10;;;;;;;;;;4163571;28;20156;-38
2022/10/13 02:42:00;;;;;;;0.10;0.10;;;;;;;;;;4162016;28;20524;-39
2022/10/13 02:44:02;;;;;;;0.20;0.10;;;;;;;;;;4163439;28;20156;-38
2022/10/13 02:46:08;;;;;;;0.22;0.10;;;;;;;;;;4163532;28;20103;-38
2022/10/13 02:48:10;;;;;;;0.20;0.10;;;;;;;;;;4145755;28;20120;-39
2022/10/13 02:50:11;;;;;;;0.28;0.10;;;;;;;;;;4162906;28;20058;-38
2022/10/13 02:52:12;;;;;;;0.50;0.20;;;;;;;;;;4155092;28;20132;-39
2022/10/13 02:54:16;;;;;;;0.22;0.10;;;;;;;;;;4163269;28;20075;-38
2022/10/13 02:56:18;;;;;;;0.10;0.10;;;;;;;;;;4163192;28;20147;-38
2022/10/13 02:58:19;;;;;;;0.45;0.10;;;;;;;;;;4163305;28;20057;-39
2022/10/13 03:00:20;;;;;;;0.10;0.10;;;;;;;;;;4162816;28;20497;-39
2022/10/13 03:02:22;;;;;;;0.20;0.10;;;;;;;;;;4161927;28;20054;-39
2022/10/13 03:04:23;;;;;;;0.10;0.10;;;;;;;;;;4162218;28;20057;-39
2022/10/13 03:06:24;;;;;;;0.10;0.10;;;;;;;;;;4161805;28;20131;-39
2022/10/13 03:08:26;;;;;;;0.20;0.20;;;;;;;;;;4162413;28;20064;-39
2022/10/13 03:10:28;;;;;;;0.13;0.10;;;;;;;;;;4161923;28;20152;-39
2022/10/13 03:12:31;;;;;;;0.10;0.10;;;;;;;;;;4161869;28;20053;-39
2022/10/13 03:14:32;;;;;;;0.10;0.10;;;;;;;;;;4160552;28;20525;-39
2022/10/13 03:16:33;;;;;;;0.10;0.10;;;;;;;;;;4162918;28;20057;-39
2022/10/13 03:18:35;;;;;;;0.32;0.10;;;;;;;;;;4163028;28;20473;-39
2022/10/13 03:20:36;;;;;;;0.30;0.17;;;;;;;;;;4161245;28;20134;-39
2022/10/13 03:22:37;;;;;;;0.10;0.10;;;;;;;;;;4161270;28;20114;-39
2022/10/13 03:24:39;;;;;;;0.60;0.20;;;;;;;;;;4162748;28;20057;-39
2022/10/13 03:26:40;;;;;;;0.30;0.10;;;;;;;;;;4161879;28;20045;-39
2022/10/13 03:28:42;;;;;;;0.22;0.10;;;;;;;;;;4151371;28;20080;-39
2022/10/13 03:30:43;;;;;;;0.08;0.05;;;;;;;;;;4138479;28;20053;-39
2022/10/13 03:32:44;;;;;;;0.17;0.17;;;;;;;;;;4163017;28;20058;-39
2022/10/13 03:34:46;;;;;;;0.30;0.10;;;;;;;;;;4162034;28;20115;-39
2022/10/13 03:36:47;;;;;;;0.03;0.03;;;;;;;;;;4162404;28;20050;-39
2022/10/13 03:38:48;;;;;;;0.10;0.10;;;;;;;;;;4162780;28;20099;-39
2022/10/13 03:40:50;;;;;;;0.28;0.20;;;;;;;;;;4163076;28;20096;-39
2022/10/13 03:42:51;;;;;;;0.52;0.20;;;;;;;;;;4162433;28;20080;-39
2022/10/13 03:44:52;;;;;;;0.22;0.10;;;;;;;;;;4162641;28;20057;-39
2022/10/13 03:46:53;;;;;;;0.70;0.10;;;;;;;;;;4162869;28;20061;-39
2022/10/13 03:48:55;;;;;;;0.30;0.20;;;;;;;;;;4162153;28;20053;-39
2022/10/13 03:50:57;;;;;;;0.15;0.10;;;;;;;;;;4162116;28;20570;-39
2022/10/13 03:52:58;;;;;;;0.13;0.10;;;;;;;;;;4164605;28;20102;-39
2022/10/13 03:54:59;;;;;;;0.30;0.20;;;;;;;;;;4152450;28;20481;-40
2022/10/13 03:57:00;;;;;;;0.32;0.20;;;;;;;;;;4161392;28;20528;-40
2022/10/13 03:59:03;;;;;;;0.13;0.13;;;;;;;;;;4162600;28;20505;-39
2022/10/13 04:01:05;;;;;;;0.65;0.20;;;;;;;;;;4162486;28;20465;-39
2022/10/13 04:03:06;;;;;;;0.28;0.15;;;;;;;;;;4161603;28;20050;-39
2022/10/13 04:05:08;;;;;;;0.13;0.10;;;;;;;;;;4162137;28;20390;-39
2022/10/13 04:07:09;;;;;;;0.10;0.10;;;;;;;;;;4162223;28;20068;-39
2022/10/13 04:09:10;;;;;;;0.63;0.17;;;;;;;;;;4162182;28;20053;-39
2022/10/13 04:11:13;;;;;;;0.08;0.08;;;;;;;;;;4162639;28;20057;-39
2022/10/13 04:13:15;;;;;;;0.10;0.10;;;;;;;;;;4162013;28;20501;-39
2022/10/13 04:15:17;;;;;;;0.25;0.10;;;;;;;;;;4162348;28;20057;-39
2022/10/13 04:17:18;;;;;;;0.20;0.10;;;;;;;;;;4162171;28;20054;-39
2022/10/13 04:19:19;;;;;;;0.50;0.10;;;;;;;;;;4161988;28;20057;-39
2022/10/13 04:21:21;;;;;;;0.10;0.10;;;;;;;;;;4160791;28;20061;-39
2022/10/13 04:23:22;;;;;;;0.43;0.15;;;;;;;;;;4162552;28;20054;-39
2022/10/13 04:25:24;;;;;;;0.00;0.00;;;;;;;;;;4161087;28;20053;-39
2022/10/13 04:27:25;;;;;;;0.10;0.10;;;;;;;;;;4161886;28;20505;-39
2022/10/13 04:29:26;;;;;;;0.10;0.10;;;;;;;;;;4162308;28;20057;-39
2022/10/13 04:31:29;;;;;;;0.35;0.25;;;;;;;;;;4162606;28;20064;-39
2022/10/13 04:33:30;;;;;;;0.10;0.10;;;;;;;;;;4162437;28;20054;-39
2022/10/13 04:35:31;;;;;;;0.10;0.10;;;;;;;;;;4161113;28;20610;-39
2022/10/13 04:37:33;;;;;;;0.10;0.10;;;;;;;;;;4162407;28;20061;-39
2022/10/13 04:39:34;;;;;;;0.10;0.10;;;;;;;;;;4162038;28;20061;-41
2022/10/13 04:41:35;;;;;;;0.47;0.10;;;;;;;;;;4162440;28;20567;-39
2022/10/13 04:43:37;;;;;;;0.25;0.10;;;;;;;;;;4160983;28;20092;-39
2022/10/13 04:45:38;;;;;;;0.28;0.15;;;;;;;;;;4162524;28;20050;-39
2022/10/13 04:47:39;;;;;;;0.63;0.20;;;;;;;;;;4162180;28;20421;-39
2022/10/13 04:49:40;;;;;;;0.35;0.22;;;;;;;;;;4155903;28;20100;-39
2022/10/13 04:51:42;;;;;;;0.77;0.15;;;;;;;;;;4161845;28;20049;-40
2022/10/13 04:53:43;;;;;;;0.20;0.10;;;;;;;;;;4155039;28;20061;-39
2022/10/13 04:55:46;;;;;;;0.30;0.30;;;;;;;;;;4163465;28;20053;-39
2022/10/13 04:57:47;;;;;;;0.20;0.10;;;;;;;;;;4164940;28;20057;-39
2022/10/13 04:59:49;;;;;;;0.20;0.20;;;;;;;;;;4165130;28;20057;-39
2022/10/13 05:01:50;;;;;;;0.20;0.13;;;;;;;;;;4144035;28;20088;-39
2022/10/13 05:03:58;;;;;;;0.28;0.20;;;;;;;;;;4161531;28;20065;-39
2022/10/13 05:05:59;;;;;;;1.58;0.20;;;;;;;;;;4162446;28;20505;-39
2022/10/13 05:08:00;;;;;;;0.30;0.10;;;;;;;;;;4161751;28;20061;-39
2022/10/13 05:10:02;;;;;;;0.40;0.10;;;;;;;;;;4178019;28;20060;-39
2022/10/13 05:12:03;;;;;;;0.25;0.20;;;;;;;;;;4157898;28;20057;-39
2022/10/13 05:14:05;;;;;;;0.32;0.20;;;;;;;;;;4162567;28;20115;-39
2022/10/13 05:16:11;;;;;;;0.20;0.13;;;;;;;;;;4161626;28;20053;-38
2022/10/13 05:18:13;;;;;;;0.10;0.10;;;;;;;;;;4162825;28;20103;-38
2022/10/13 05:20:15;;;;;;;0.10;0.10;;;;;;;;;;4158677;28;20103;-39
2022/10/13 05:22:17;;;;;;;1.30;0.30;;;;;;;;;;4159623;28;20068;-38
2022/10/13 05:24:20;;;;;;;0.93;0.30;;;;;;;;;;4161672;28;20426;-39
2022/10/13 05:26:30;;;;;;;0.30;0.15;;;;;;;;;;4161073;28;20042;-40
2022/10/13 05:28:32;;;;;;;0.82;0.28;;;;;;;;;;4154993;28;20468;-40
2022/10/13 05:30:33;;;;;;;1.20;0.35;;;;;;;;;;4152162;28;20084;-40
2022/10/13 05:32:35;;;;;;;0.68;0.17;;;;;;;;;;4151591;28;20065;-40
2022/10/13 05:34:36;;;;;;;0.20;0.10;;;;;;;;;;4152838;28;20393;-40
2022/10/13 05:36:37;;;;;;;0.40;0.20;;;;;;;;;;4150169;28;20190;-38
2022/10/13 05:38:39;;;;;;;0.75;0.20;;;;;;;;;;4156078;28;20049;-38
2022/10/13 05:40:40;;;;;;;1.10;0.30;;;;;;;;;;4158519;28;20045;-39
2022/10/13 05:42:42;;;;;;;0.80;0.40;;;;;;;;;;4155983;28;20235;-39
2022/10/13 05:44:44;;;;;;;0.98;0.30;;;;;;;;;;4152076;28;20445;-39
2022/10/13 05:46:45;;;;;;;0.40;0.30;;;;;;;;;;4157683;28;20054;-38
2022/10/13 05:48:46;;;;;;;0.25;0.20;;;;;;;;;;4157535;28;20100;-39
2022/10/13 05:50:48;;;;;;;0.40;0.30;;;;;;;;;;4139272;28;20058;-38
2022/10/13 05:52:50;;;;;;;0.55;0.30;;;;;;;;;;4153737;28;20417;-40
2022/10/13 05:54:55;;;;;;;0.60;0.30;;;;;;;;;;4147797;28;20176;-40
2022/10/13 05:57:26;;;;;;;0.77;0.28;;;;;;;;;;4152035;28;20060;-40
2022/10/13 05:59:31;;;;;;;0.45;0.22;;;;;;;;;;4146369;28;20061;-39
2022/10/13 06:01:35;;;;;;;0.60;0.20;;;;;;;;;;4150289;28;20115;-40
2022/10/13 06:03:38;;;;;;;0.40;0.20;;;;;;;;;;4153492;28;20084;-40
2022/10/13 06:05:42;;;;;;;1.85;0.20;;;;;;;;;;4143069;28;20211;-40
2022/10/13 06:07:44;;;;;;;0.98;0.30;;;;;;;;;;4147329;28;20056;-41
2022/10/13 06:09:45;;;;;;;0.85;0.30;;;;;;;;;;4149260;28;20519;-40
2022/10/13 06:11:46;;;;;;;0.70;0.20;;;;;;;;;;4152483;28;20117;-40
2022/10/13 06:13:48;;;;;;;0.65;0.22;;;;;;;;;;4156273;28;20053;-40
2022/10/13 06:15:49;;;;;;;0.52;0.40;;;;;;;;;;4153970;28;20566;-39
2022/10/13 06:17:50;;;;;;;0.32;0.30;;;;;;;;;;4154075;28;20103;-40
2022/10/13 06:19:52;;;;;;;0.55;0.28;;;;;;;;;;4145615;28;20088;-40
2022/10/13 06:21:53;;;;;;;1.85;0.20;;;;;;;;;;4148187;28;20250;-40
2022/10/13 06:23:55;;;;;;;2.30;0.32;;;;;;;;;;4139783;28;20548;-40
2022/10/13 06:25:56;;;;;;;0.57;0.28;;;;;;;;;;4145789;28;20057;-40
2022/10/13 06:27:59;;;;;;;1.00;0.20;;;;;;;;;;4138227;28;20477;-40
2022/10/13 06:30:00;;;;;;;0.80;0.40;;;;;;;;;;4142512;28;20164;-40
2022/10/13 06:32:01;;;;;;;0.40;0.40;;;;;;;;;;4143904;28;20061;-40
2022/10/13 06:34:03;;;;;;;1.80;0.40;;;;;;;;;;4135112;28;20116;-39
2022/10/13 06:36:05;;;;;;;1.05;0.20;;;;;;;;;;4143816;28;20060;-40
2022/10/13 06:38:06;;;;;;;0.40;0.20;;;;;;;;;;4136724;28;20178;-40
2022/10/13 06:40:09;;;;;;;1.52;0.30;;;;;;;;;;4128402;28;20073;-40
2022/10/13 06:42:11;;;;;;;0.93;0.40;;;;;;;;;;4138354;28;20669;-40
2022/10/13 06:44:12;;;;;;;0.90;0.30;;;;;;;;;;4139346;28;20150;-40
2022/10/13 06:46:14;;;;;;;3.45;0.30;;;;;;;;;;4130916;28;20049;-40
2022/10/13 06:48:15;;;;;;;2.10;0.40;;;;;;;;;;4126337;28;20057;-40
2022/10/13 06:50:16;;;;;;;6.63;0.60;;;;;;;;;;4127462;28;20092;-40
2022/10/13 06:52:17;;;;;;;0.32;0.30;;;;;;;;;;4134989;28;20178;-40
2022/10/13 06:54:19;;;;;;;0.90;0.30;;;;;;;;;;4130393;28;20947;-40
2022/10/13 06:56:20;;;;;;;1.73;0.40;;;;;;;;;;4124765;28;20107;-40
2022/10/13 06:58:21;;;;;;;0.47;0.40;;;;;;;;;;4136550;28;20162;-39
2022/10/13 07:00:23;;;;;;;1.25;0.30;;;;;;;;;;4130075;28;20131;-40
2022/10/13 07:02:24;;;;;;;0.30;0.30;;;;;;;;;;4130866;28;20057;-40
2022/10/13 07:04:26;;;;;;;1.42;0.32;;;;;;;;;;4132763;28;20061;-39
2022/10/13 07:06:32;;;;;;;1.50;0.30;;;;;;;;;;4122966;28;20161;-39
2022/10/13 07:08:34;;;;;;;1.73;0.45;;;;;;;;;;4121123;28;20629;-39
2022/10/13 07:10:39;;;;;;;0.90;0.28;;;;;;;;;;4123980;28;20482;-39
2022/10/13 07:12:41;;;;;;;2.92;0.32;;;;;;;;;;4119584;28;20061;-39
2022/10/13 07:14:42;;;;;;;0.57;0.30;;;;;;;;;;4127823;28;20057;-39
2022/10/13 07:16:43;;;;;;;1.80;0.65;;;;;;;;;;4116874;28;20053;-39
2022/10/13 07:18:46;;;;;;;0.75;0.30;;;;;;;;;;4125959;28;20689;-40
2022/10/13 07:20:48;;;;;;;1.55;0.43;;;;;;;;;;4122018;28;20057;-39
2022/10/13 07:22:52;;;;;;;0.52;0.30;;;;;;;;;;4128894;28;20127;-39
2022/10/13 07:24:54;;;;;;;0.77;0.22;;;;;;;;;;4119853;28;20056;-40
2022/10/13 07:26:55;;;;;;;0.65;0.40;;;;;;;;;;4127343;28;20056;-40
2022/10/13 07:28:57;;;;;;;5.75;0.32;;;;;;;;;;4123576;28;20053;-40
2022/10/13 07:30:58;;;;;;;0.65;0.30;;;;;;;;;;4108088;28;20879;-38
2022/10/13 07:33:00;;;;;;;0.65;0.40;;;;;;;;;;4123743;28;20102;-38
2022/10/13 07:35:02;;;;;;;1.45;0.30;;;;;;;;;;4118970;28;21046;-37
2022/10/13 07:37:03;;;;;;;3.45;0.50;;;;;;;;;;4130038;28;20053;-38
2022/10/13 07:39:09;;;;;;;9.45;0.32;;;;;;;;;;4126194;28;20613;-38
2022/10/13 07:41:11;;;;;;;1.98;0.40;;;;;;;;;;4135304;28;21043;-37
2022/10/13 07:43:13;;;;;;;0.93;0.28;;;;;;;;;;4126654;28;20693;-38
2022/10/13 07:45:14;;;;;;;0.55;0.30;;;;;;;;;;4129106;28;21051;-38
2022/10/13 07:47:16;;;;;;;2.67;0.40;;;;;;;;;;4125368;28;20123;-39
2022/10/13 07:49:18;;;;;;;1.13;0.30;;;;;;;;;;4122746;28;20491;-38
2022/10/13 07:51:20;;;;;;;2.38;0.40;;;;;;;;;;4129230;28;20170;-38
2022/10/13 07:53:21;;;;;;;0.20;0.10;;;;;;;;;;4129402;28;20053;-38
2022/10/13 07:55:23;;;;;;;1.70;0.40;;;;;;;;;;4128352;28;21615;-39
2022/10/13 07:57:28;;;;;;;0.90;0.30;;;;;;;;;;4121958;28;20794;-38
2022/10/13 07:59:33;;;;;;;1.08;0.32;;;;;;;;;;4126680;28;20115;-38
2022/10/13 08:01:34;;;;;;;0.98;0.40;;;;;;;;;;4123023;28;20062;-39
2022/10/13 08:03:36;;;;;;;1.73;0.30;;;;;;;;;;4121885;28;20054;-38
2022/10/13 08:05:38;;;;;;;4.93;0.40;;;;;;;;;;4122266;28;20065;-39
2022/10/13 08:07:40;;;;;;;2.22;0.50;;;;;;;;;;4122782;28;20807;-39
2022/10/13 08:09:42;;;;;;;4.03;0.30;;;;;;;;;;4125804;28;20740;-39
2022/10/13 08:11:43;;;;;;;1.73;0.40;;;;;;;;;;4129514;28;20520;-38
2022/10/13 08:13:47;;;;;;;1.60;0.40;;;;;;;;;;4127966;28;20578;-38
2022/10/13 08:15:50;;;;;;;0.32;0.32;;;;;;;;;;4129871;28;20057;-39
2022/10/13 08:17:52;;;;;;;2.42;0.40;;;;;;;;;;4128857;28;20471;-39
2022/10/13 08:19:55;;;;;;;2.92;0.32;;;;;;;;;;4121534;28;20060;-39
2022/10/13 08:22:00;;;;;;;0.63;0.30;;;;;;;;;;4121495;28;20489;-38
2022/10/13 08:24:01;;;;;;;0.90;0.55;;;;;;;;;;4127526;28;20564;-39
2022/10/13 08:26:03;;;;;;;1.65;0.30;;;;;;;;;;4123665;28;20074;-39
2022/10/13 08:28:06;;;;;;;0.93;0.40;;;;;;;;;;4123812;28;20061;-39
2022/10/13 08:30:08;;;;;;;1.55;0.50;;;;;;;;;;4117614;28;20624;-38
2022/10/13 08:32:11;;;;;;;1.52;0.22;;;;;;;;;;4122949;28;20420;-39
2022/10/13 08:34:12;;;;;;;1.40;0.20;;;;;;;;;;4122149;28;20660;-39
2022/10/13 08:36:15;;;;;;;1.38;0.60;;;;;;;;;;4120476;28;20191;-38
2022/10/13 08:38:16;;;;;;;2.15;0.30;;;;;;;;;;4121349;28;20062;-38
2022/10/13 08:40:19;;;;;;;0.98;0.30;;;;;;;;;;4122195;28;20053;-39
2022/10/13 08:42:21;;;;;;;0.50;0.40;;;;;;;;;;4119905;28;20064;-40
2022/10/13 08:44:38;;;;;;;2.65;0.60;;;;;;;;;;4118142;28;20373;-40
2022/10/13 08:47:14;;;;;;;1.35;0.38;;;;;;;;;;4084951;28;20077;-40
2022/10/13 08:49:16;;;;;;;1.50;0.30;;;;;;;;;;4126255;28;20065;-40
2022/10/13 08:51:17;;;;;;;1.95;0.38;;;;;;;;;;4123942;28;20622;-40
2022/10/13 08:53:24;;;;;;;0.90;0.25;;;;;;;;;;4128619;28;20832;-40
2022/10/13 08:55:42;;;;;;;0.73;0.20;;;;;;;;;;4125945;28;20752;-40
2022/10/13 08:57:44;;;;;;;1.25;0.50;;;;;;;;;;4121005;28;20057;-39
2022/10/13 08:59:46;;;;;;;0.77;0.20;;;;;;;;;;4122438;28;20159;-40
2022/10/13 09:01:53;;;;;;;0.57;0.40;;;;;;;;;;4110999;28;20088;-39
2022/10/13 09:04:12;;;;;;;0.57;0.30;;;;;;;;;;4110082;28;20065;-39
2022/10/13 09:06:16;;;;;;;;;;;;;;;;;;4123082;28;20061;-39
2022/10/13 09:08:19;;;;;;;2.85;0.40;;;;;;;;;;4122138;28;20333;-39
2022/10/13 09:10:20;;;;;;;2.10;0.50;;;;;;;;;;4129387;28;20416;-39
2022/10/13 09:12:25;;;;;;;0.60;0.40;;;;;;;;;;4123382;28;20147;-40
2022/10/13 09:14:31;;;;;;;0.30;0.20;;;;;;;;;;4118302;28;22138;-39
2022/10/13 09:16:34;;;;;;;2.22;0.50;;;;;;;;;;4120712;28;20104;-39
2022/10/13 09:18:38;;;;;;;0.50;0.30;;;;;;;;;;4117059;28;20494;-40
2022/10/13 09:20:43;;;;;;;0.50;0.22;;;;;;;;;;4128205;28;20053;-38
2022/10/13 09:23:02;;;;;;;1.00;0.40;;;;;;;;;;4115468;28;20827;-40
2022/10/13 09:25:06;;;;;;;1.77;0.22;;;;;;;;;;4121742;28;20061;-39
2022/10/13 09:27:14;;;;;;;0.50;0.30;;;;;;;;;;4116938;28;20053;-39
2022/10/13 09:29:23;;;;;;;2.10;0.43;;;;;;;;;;4119650;28;20124;-39
2022/10/13 09:31:26;;;;;;;1.20;0.30;;;;;;;;;;4109843;28;20053;-39
2022/10/13 09:33:27;;;;;;;1.83;0.20;;;;;;;;;;4103792;28;20784;-39
2022/10/13 09:35:32;;;;;;;3.65;0.30;;;;;;;;;;4114205;28;20113;-37
2022/10/13 09:37:34;;;;;;;0.65;0.38;;;;;;;;;;4117910;28;20060;-38
2022/10/13 09:39:36;;;;;;;0.90;0.40;;;;;;;;;;4124096;28;20107;-39
2022/10/13 09:41:39;;;;;;;1.10;0.40;;;;;;;;;;4115907;28;20053;-38
2022/10/13 09:43:46;;;;;;;2.22;0.47;;;;;;;;;;4117169;28;20561;-38
2022/10/13 09:45:55;;;;;;;0.60;0.25;;;;;;;;;;4128686;28;20066;-38
2022/10/13 09:48:03;;;;;;;3.03;0.50;;;;;;;;;;4124576;28;20473;-38
2022/10/13 09:50:17;;;;;;;2.40;0.43;;;;;;;;;;4125140;28;20405;-38
2022/10/13 09:52:20;;;;;;;0.35;0.25;;;;;;;;;;4105380;28;20091;-38
2022/10/13 09:54:26;;;;;;;3.03;0.47;;;;;;;;;;4121998;28;20119;-38
2022/10/13 09:56:34;;;;;;;5.75;0.73;;;;;;;;;;4130268;28;20054;-38
2022/10/13 09:58:44;;;;;;;0.85;0.30;;;;;;;;;;4121359;28;20058;-38
2022/10/13 10:00:48;;;;;;;1.05;0.25;;;;;;;;;;4128362;28;20124;-38
2022/10/13 10:03:12;;;;;;;1.42;0.38;;;;;;;;;;4126264;28;21090;-38
2022/10/13 10:05:22;;;;;;;1.63;0.22;;;;;;;;;;4101249;28;20786;-37
2022/10/13 10:07:29;;;;;;;2.03;0.30;;;;;;;;;;4121001;28;20049;-38
2022/10/13 10:09:36;;;;;;;7.22;0.60;;;;;;;;;;4128098;28;20540;-38
2022/10/13 10:11:42;;;;;;;1.60;0.25;;;;;;;;;;4128549;28;20653;-38
2022/10/13 10:13:43;;;;;;;3.35;0.40;;;;;;;;;;4114966;28;20058;-38
2022/10/13 10:15:49;;;;;;;0.75;0.40;;;;;;;;;;4127032;28;20142;-39
2022/10/13 10:17:55;;;;;;;0.68;0.30;;;;;;;;;;4129726;28;20955;-38
2022/10/13 10:20:24;;;;;;;0.70;0.30;;;;;;;;;;4120057;28;20057;-38
2022/10/13 10:22:42;;;;;;;0.90;0.40;;;;;;;;;;4126677;28;20057;-38
2022/10/13 10:25:12;;;;;;;3.63;0.30;;;;;;;;;;4127625;28;20119;-40
2022/10/13 10:27:27;;;;;;;0.98;0.32;;;;;;;;;;4122742;28;20251;-38
2022/10/13 10:29:36;;;;;;;1.00;0.30;;;;;;;;;;4120757;28;20057;-38
2022/10/13 10:31:52;;;;;;;0.97;0.40;;;;;;;;;;4131591;28;20521;-37
2022/10/13 10:34:01;;;;;;;0.82;0.30;;;;;;;;;;4133193;28;20254;-38
2022/10/13 10:36:16;;;;;;;1.00;0.35;;;;;;;;;;4141629;28;20061;-37
2022/10/13 10:38:50;;;;;;;0.98;0.40;;;;;;;;;;4135897;28;20064;-37
2022/10/13 10:41:24;;;;;;;1.17;0.40;;;;;;;;;;4131603;28;20053;-38
2022/10/13 10:43:40;;;;;;;2.63;0.40;;;;;;;;;;4131169;28;20067;-37
2022/10/13 10:45:45;;;;;;;2.05;0.35;;;;;;;;;;4135101;28;20049;-36
2022/10/13 10:47:50;;;;;;;0.88;0.40;;;;;;;;;;4133101;28;20548;-36
2022/10/13 10:50:00;;;;;;;1.75;0.50;;;;;;;;;;4132875;28;20065;-37
2022/10/13 10:52:06;;;;;;;2.47;0.50;;;;;;;;;;4134380;28;20064;-38
2022/10/13 10:54:26;;;;;;;1.27;0.65;;;;;;;;;;4141241;28;20076;-38
2022/10/13 10:56:37;;;;;;;1.15;0.57;;;;;;;;;;4134929;28;20611;-37
2022/10/13 10:59:21;;;;;;;0.95;0.45;;;;;;;;;;4120977;28;20135;-37
2022/10/13 11:01:44;;;;;;;0.57;0.45;;;;;;;;;;4122802;28;20543;-37
2022/10/13 11:03:55;;;;;;;0.80;0.40;;;;;;;;;;4126823;28;20568;-37
2022/10/13 11:05:56;;;;;;;0.95;0.50;;;;;;;;;;4125594;28;20103;-37
2022/10/13 11:07:58;;;;;;;1.70;0.75;;;;;;;;;;4125247;28;20061;-37
2022/10/13 11:10:13;;;;;;;3.95;0.38;;;;;;;;;;4125826;28;20215;-37
2022/10/13 11:12:20;;;;;;;2.35;0.60;;;;;;;;;;4129814;28;20061;-37
2022/10/13 11:14:28;;;;;;;3.83;0.57;;;;;;;;;;4128359;28;20114;-37
2022/10/13 11:16:57;;;;;;;2.83;0.60;;;;;;;;;;4129200;28;21341;-37
2022/10/13 11:19:33;;;;;;;1.05;0.47;;;;;;;;;;4125360;28;21422;-37
2022/10/13 11:21:53;;;;;;;1.75;0.70;;;;;;;;;;4133254;28;20123;-37
2022/10/13 11:23:54;;;;;;;;;;;;;;;;;;4125128;28;20122;-37
2022/10/13 11:26:19;;;;;;;0.50;0.40;;;;;;;;;;4131357;28;19959;-38
2022/10/13 11:28:21;;;;;;;0.90;0.40;;;;;;;;;;4123142;28;20060;-38
2022/10/13 11:30:43;;;;;;;1.40;0.55;;;;;;;;;;4129586;28;20120;-38
2022/10/13 11:32:54;;;;;;;1.00;0.40;;;;;;;;;;4128811;28;20108;-37
2022/10/13 11:34:57;;;;;;;0.68;0.57;;;;;;;;;;4129487;28;20064;-38
2022/10/13 11:37:00;;;;;;;1.25;0.77;;;;;;;;;;4135387;28;20058;-38
2022/10/13 11:39:20;;;;;;;0.82;0.43;;;;;;;;;;4137000;28;20088;-37
2022/10/13 11:41:26;;;;;;;1.00;0.55;;;;;;;;;;4141077;28;20468;-37
2022/10/13 11:43:33;;;;;;;0.77;0.50;;;;;;;;;;4138920;28;20091;-37
2022/10/13 11:45:56;;;;;;;1.00;0.40;;;;;;;;;;4134278;28;20057;-38
2022/10/13 11:48:16;;;;;;;0.70;0.50;;;;;;;;;;4134556;28;20515;-38
2022/10/13 11:50:24;;;;;;;1.08;0.68;;;;;;;;;;4132719;28;20073;-38
2022/10/13 11:52:38;;;;;;;0.60;0.47;;;;;;;;;;4136802;28;20536;-38
2022/10/13 11:54:50;;;;;;;0.95;0.38;;;;;;;;;;4130324;28;20115;-38
2022/10/13 11:56:54;;;;;;;1.48;0.55;;;;;;;;;;4136144;28;20045;-37
2022/10/13 11:58:55;;;;;;;1.25;0.40;;;;;;;;;;4135475;28;20202;-37
2022/10/13 12:00:58;;;;;;;1.05;0.75;;;;;;;;;;4136917;28;21947;-37
2022/10/13 12:02:59;;;;;;;1.08;0.40;;;;;;;;;;4132778;28;20579;-38
2022/10/13 12:05:01;;;;;;;0.98;0.40;;;;;;;;;;4131145;28;21862;-38
2022/10/13 12:07:05;;;;;;;2.65;0.30;;;;;;;;;;4136871;28;20580;-38
2022/10/13 12:09:16;;;;;;;3.28;0.80;;;;;;;;;;4134329;28;20057;-37
2022/10/13 12:11:27;;;;;;;1.02;0.47;;;;;;;;;;4136958;28;20167;-38
2022/10/13 12:13:30;;;;;;;1.20;0.60;;;;;;;;;;4138846;28;20084;-38
2022/10/13 12:15:42;;;;;;;0.75;0.47;;;;;;;;;;4138875;28;20053;-38
2022/10/13 12:17:43;;;;;;;2.65;0.60;;;;;;;;;;4137433;28;20119;-38
2022/10/13 12:19:45;;;;;;;0.85;0.40;;;;;;;;;;4137869;28;20088;-38
2022/10/13 12:21:51;;;;;;;0.47;0.40;;;;;;;;;;4140100;28;20084;-38
2022/10/13 12:24:07;;;;;;;1.25;0.55;;;;;;;;;;4138769;28;20517;-38
2022/10/13 12:26:17;;;;;;;1.55;0.50;;;;;;;;;;4132773;28;20057;-38
2022/10/13 12:28:18;;;;;;;0.47;0.38;;;;;;;;;;4133492;28;20200;-38
2022/10/13 12:30:35;;;;;;;2.47;0.40;;;;;;;;;;4123145;28;20974;-38
2022/10/13 12:32:36;;;;;;;0.80;0.40;;;;;;;;;;4117105;28;20057;-38